sensor_id;sensor_type;location;lat;lon;timestamp;pressure;altitude;pressure_sealevel;temperature;humidity
31585;BME280;18191;51.288;12.390;2022-07-22T00:02:05;48833.78;;;-144.47;50.34
31585;BME280;18191;51.288;12.390;2022-07-22T00:06:56;48772.13;;;-144.47;50.47
31585;BME280;18191;51.288;12.390;2022-07-22T00:11:46;48857.66;;;-144.47;51.11
31585;BME280;18191;51.288;12.390;2022-07-22T00:16:36;48794.00;;;-144.47;51.65
31585;BME280;18191;51.288;12.390;2022-07-22T00:21:26;48790.03;;;-144.47;51.54
31585;BME280;18191;51.288;12.390;2022-07-22T00:26:16;48835.78;;;-144.47;51.91
31585;BME280;18191;51.288;12.390;2022-07-22T00:31:07;48845.72;;;-144.47;52.06
31585;BME280;18191;51.288;12.390;2022-07-22T00:35:57;48786.06;;;-144.47;52.68
31585;BME280;18191;51.288;12.390;2022-07-22T00:40:47;48805.94;;;-144.47;51.74
31585;BME280;18191;51.288;12.390;2022-07-22T00:45:37;48825.84;;;-144.47;52.92
31585;BME280;18191;51.288;12.390;2022-07-22T00:50:27;48809.91;;;-144.47;53.14
31585;BME280;18191;51.288;12.390;2022-07-22T00:55:17;48799.97;;;-144.47;53.58
31585;BME280;18191;51.288;12.390;2022-07-22T01:00:09;48827.81;;;-144.47;54.07
31585;BME280;18191;51.288;12.390;2022-07-22T01:05:00;48829.81;;;-144.47;54.25
31585;BME280;18191;51.288;12.390;2022-07-22T01:09:50;48845.72;;;-144.47;54.57
31585;BME280;18191;51.288;12.390;2022-07-22T01:14:40;48873.56;;;-144.47;54.89
31585;BME280;18191;51.288;12.390;2022-07-22T01:19:31;48811.91;;;-144.47;55.33
31585;BME280;18191;51.288;12.390;2022-07-22T01:24:21;48809.91;;;-144.47;55.92
31585;BME280;18191;51.288;12.390;2022-07-22T01:29:11;48813.91;;;-144.47;56.39
31585;BME280;18191;51.288;12.390;2022-07-22T01:34:01;48825.84;;;-144.47;56.86
31585;BME280;18191;51.288;12.390;2022-07-22T01:38:52;48837.78;;;-144.47;56.99
31585;BME280;18191;51.288;12.390;2022-07-22T01:43:42;48837.78;;;-144.47;57.34
31585;BME280;18191;51.288;12.390;2022-07-22T01:48:32;48821.84;;;-144.47;57.44
31585;BME280;18191;51.288;12.390;2022-07-22T01:53:23;48849.69;;;-144.47;57.24
31585;BME280;18191;51.288;12.390;2022-07-22T01:58:13;48833.78;;;-144.47;57.13
31585;BME280;18191;51.288;12.390;2022-07-22T02:03:03;48825.84;;;-144.47;57.47
31585;BME280;18191;51.288;12.390;2022-07-22T02:07:58;48847.72;;;-144.47;57.22
31585;BME280;18191;51.288;12.390;2022-07-22T02:12:48;48833.78;;;-144.47;57.46
31585;BME280;18191;51.288;12.390;2022-07-22T02:17:38;48794.00;;;-144.47;57.46
31585;BME280;18191;51.288;12.390;2022-07-22T02:22:29;48829.81;;;-144.47;57.99
31585;BME280;18191;51.288;12.390;2022-07-22T02:27:19;48853.69;;;-144.47;58.16
31585;BME280;18191;51.288;12.390;2022-07-22T02:32:09;48801.97;;;-144.47;59.14
31585;BME280;18191;51.288;12.390;2022-07-22T02:36:59;48805.94;;;-144.47;59.19
31585;BME280;18191;51.288;12.390;2022-07-22T02:41:49;48815.88;;;-144.47;60.02
31585;BME280;18191;51.288;12.390;2022-07-22T02:46:40;48821.84;;;-144.47;60.49
31585;BME280;18191;51.288;12.390;2022-07-22T02:51:30;48863.63;;;-144.47;61.05
31585;BME280;18191;51.288;12.390;2022-07-22T02:56:20;48798.00;;;-144.47;60.59
31585;BME280;18191;51.288;12.390;2022-07-22T03:01:11;48829.81;;;-144.47;61.63
31585;BME280;18191;51.288;12.390;2022-07-22T03:06:01;48843.72;;;-144.47;61.72
31585;BME280;18191;51.288;12.390;2022-07-22T03:10:51;48843.72;;;-144.47;62.59
31585;BME280;18191;51.288;12.390;2022-07-22T03:15:42;48849.69;;;-144.47;62.07
31585;BME280;18191;51.288;12.390;2022-07-22T03:20:32;48873.56;;;-144.47;63.35
31585;BME280;18191;51.288;12.390;2022-07-22T03:25:23;48873.56;;;-144.47;63.05
31585;BME280;18191;51.288;12.390;2022-07-22T03:30:13;48839.75;;;-144.47;63.08
31585;BME280;18191;51.288;12.390;2022-07-22T03:35:03;48855.66;;;-144.47;63.56
31585;BME280;18191;51.288;12.390;2022-07-22T03:39:54;48847.72;;;-144.47;63.35
31585;BME280;18191;51.288;12.390;2022-07-22T03:44:44;48845.72;;;-144.47;63.40
31585;BME280;18191;51.288;12.390;2022-07-22T03:49:34;48861.63;;;-144.47;64.41
31585;BME280;18191;51.288;12.390;2022-07-22T03:54:24;48865.63;;;-144.47;63.20
31585;BME280;18191;51.288;12.390;2022-07-22T03:59:15;48817.88;;;-144.47;62.40
31585;BME280;18191;51.288;12.390;2022-07-22T04:04:06;48845.72;;;-144.47;62.31
31585;BME280;18191;51.288;12.390;2022-07-22T04:08:56;48857.66;;;-144.47;61.28
31585;BME280;18191;51.288;12.390;2022-07-22T04:13:46;48863.63;;;-144.47;61.35
31585;BME280;18191;51.288;12.390;2022-07-22T04:18:36;48845.72;;;-144.47;60.59
31585;BME280;18191;51.288;12.390;2022-07-22T04:23:26;48857.66;;;-144.47;60.86
31585;BME280;18191;51.288;12.390;2022-07-22T04:28:16;48853.69;;;-144.47;60.61
31585;BME280;18191;51.288;12.390;2022-07-22T04:33:07;48829.81;;;-144.47;60.95
31585;BME280;18191;51.288;12.390;2022-07-22T04:37:57;48837.78;;;-144.47;59.79
31585;BME280;18191;51.288;12.390;2022-07-22T04:42:47;48897.44;;;-144.47;58.83
31585;BME280;18191;51.288;12.390;2022-07-22T04:47:37;48837.78;;;-144.47;58.06
31585;BME280;18191;51.288;12.390;2022-07-22T04:52:27;48853.69;;;-144.47;56.76
31585;BME280;18191;51.288;12.390;2022-07-22T04:57:17;48861.63;;;-144.47;55.93
31585;BME280;18191;51.288;12.390;2022-07-22T05:02:08;48855.66;;;-144.47;56.17
31585;BME280;18191;51.288;12.390;2022-07-22T05:06:58;48833.78;;;-144.47;55.76
31585;BME280;18191;51.288;12.390;2022-07-22T05:11:48;48829.81;;;-144.47;55.15
31585;BME280;18191;51.288;12.390;2022-07-22T05:16:38;48813.91;;;-144.47;53.61
31585;BME280;18191;51.288;12.390;2022-07-22T05:21:28;48805.94;;;-144.47;52.05
31585;BME280;18191;51.288;12.390;2022-07-22T05:26:18;48782.06;;;-144.47;45.12
31585;BME280;18191;51.288;12.390;2022-07-22T05:31:09;48805.94;;;-144.47;46.15
31585;BME280;18191;51.288;12.390;2022-07-22T05:35:59;48831.81;;;-144.47;47.84
31585;BME280;18191;51.288;12.390;2022-07-22T05:40:49;48805.94;;;-144.47;47.30
31585;BME280;18191;51.288;12.390;2022-07-22T05:45:39;48796.00;;;-144.47;40.51
31585;BME280;18191;51.288;12.390;2022-07-22T05:50:29;48805.94;;;-144.47;44.18
31585;BME280;18191;51.288;12.390;2022-07-22T05:55:19;48774.13;;;-144.47;44.82
31585;BME280;18191;51.288;12.390;2022-07-22T06:00:10;48813.91;;;-144.47;46.17
31585;BME280;18191;51.288;12.390;2022-07-22T06:05:00;48796.00;;;-144.47;46.02
31585;BME280;18191;51.288;12.390;2022-07-22T06:09:50;48831.81;;;-144.47;46.64
31585;BME280;18191;51.288;12.390;2022-07-22T06:14:41;48760.19;;;-144.47;48.80
31585;BME280;18191;51.288;12.390;2022-07-22T06:19:31;48829.81;;;-144.47;48.15
31585;BME280;18191;51.288;12.390;2022-07-22T06:24:22;48809.91;;;-144.47;44.69
31585;BME280;18191;51.288;12.390;2022-07-22T06:29:12;48794.00;;;-144.47;42.51
31585;BME280;18191;51.288;12.390;2022-07-22T06:34:02;48827.81;;;-144.47;40.42
31585;BME280;18191;51.288;12.390;2022-07-22T06:38:55;48788.03;;;-144.47;42.24
31585;BME280;18191;51.288;12.390;2022-07-22T06:43:45;48786.06;;;-144.47;42.62
31585;BME280;18191;51.288;12.390;2022-07-22T06:48:36;48742.28;;;-144.47;41.40
31585;BME280;18191;51.288;12.390;2022-07-22T06:53:26;48792.03;;;-144.47;42.86
31585;BME280;18191;51.288;12.390;2022-07-22T06:58:16;48817.88;;;-144.47;43.91
31585;BME280;18191;51.288;12.390;2022-07-22T07:03:06;48805.94;;;-144.47;45.91
31585;BME280;18191;51.288;12.390;2022-07-22T07:07:56;48809.91;;;-144.47;48.12
31585;BME280;18191;51.288;12.390;2022-07-22T07:12:47;48798.00;;;-144.47;47.94
31585;BME280;18191;51.288;12.390;2022-07-22T07:17:37;48829.81;;;-144.47;47.40
31585;BME280;18191;51.288;12.390;2022-07-22T07:22:27;48847.72;;;-144.47;45.35
31585;BME280;18191;51.288;12.390;2022-07-22T07:27:17;48821.84;;;-144.47;42.79
31585;BME280;18191;51.288;12.390;2022-07-22T07:32:08;48831.81;;;-144.47;41.92
31585;BME280;18191;51.288;12.390;2022-07-22T07:36:58;48782.06;;;-144.47;42.51
31585;BME280;18191;51.288;12.390;2022-07-22T07:41:48;48794.00;;;-144.47;40.67
31585;BME280;18191;51.288;12.390;2022-07-22T07:46:38;48817.88;;;-144.47;40.55
31585;BME280;18191;51.288;12.390;2022-07-22T07:51:29;48829.81;;;-144.47;40.03
31585;BME280;18191;51.288;12.390;2022-07-22T07:56:19;48843.72;;;-144.47;41.23
31585;BME280;18191;51.288;12.390;2022-07-22T08:01:09;48817.88;;;-144.47;40.76
31585;BME280;18191;51.288;12.390;2022-07-22T08:05:59;48817.88;;;-144.47;41.65
31585;BME280;18191;51.288;12.390;2022-07-22T08:10:49;48835.78;;;-144.47;42.39
31585;BME280;18191;51.288;12.390;2022-07-22T08:15:40;48809.91;;;-144.47;41.45
31585;BME280;18191;51.288;12.390;2022-07-22T08:20:30;48803.94;;;-144.47;40.81
31585;BME280;18191;51.288;12.390;2022-07-22T08:25:20;48821.84;;;-144.47;41.68
31585;BME280;18191;51.288;12.390;2022-07-22T08:30:11;48845.72;;;-144.47;40.37
31585;BME280;18191;51.288;12.390;2022-07-22T08:35:02;48817.88;;;-144.47;39.35
31585;BME280;18191;51.288;12.390;2022-07-22T08:39:52;48839.75;;;-144.47;39.66
31585;BME280;18191;51.288;12.390;2022-07-22T08:44:43;48817.88;;;-144.47;38.84
31585;BME280;18191;51.288;12.390;2022-07-22T08:49:33;48815.88;;;-144.47;38.09
31585;BME280;18191;51.288;12.390;2022-07-22T08:54:24;48786.06;;;-144.47;37.60
31585;BME280;18191;51.288;12.390;2022-07-22T08:59:14;48798.00;;;-144.47;36.74
31585;BME280;18191;51.288;12.390;2022-07-22T09:04:04;48796.00;;;-144.47;36.86
31585;BME280;18191;51.288;12.390;2022-07-22T09:08:58;48794.00;;;-144.47;35.44
31585;BME280;18191;51.288;12.390;2022-07-22T09:13:49;48829.81;;;-144.47;34.22
31585;BME280;18191;51.288;12.390;2022-07-22T09:18:50;48813.91;;;-144.47;35.65
31585;BME280;18191;51.288;12.390;2022-07-22T09:23:41;48817.88;;;-144.47;35.92
31585;BME280;18191;51.288;12.390;2022-07-22T09:28:31;48801.97;;;-144.47;34.78
31585;BME280;18191;51.288;12.390;2022-07-22T09:33:22;48813.91;;;-144.47;35.95
31585;BME280;18191;51.288;12.390;2022-07-22T09:38:13;48809.91;;;-144.47;37.04
31585;BME280;18191;51.288;12.390;2022-07-22T09:43:04;48805.94;;;-144.47;35.04
31585;BME280;18191;51.288;12.390;2022-07-22T09:47:55;48809.91;;;-144.47;35.23
31585;BME280;18191;51.288;12.390;2022-07-22T09:52:46;48805.94;;;-144.47;36.33
31585;BME280;18191;51.288;12.390;2022-07-22T09:57:37;48835.78;;;-144.47;36.50
31585;BME280;18191;51.288;12.390;2022-07-22T10:02:27;48807.94;;;-144.47;36.31
31585;BME280;18191;51.288;12.390;2022-07-22T10:07:19;48819.88;;;-144.47;35.14
31585;BME280;18191;51.288;12.390;2022-07-22T10:12:10;48839.75;;;-144.47;34.40
31585;BME280;18191;51.288;12.390;2022-07-22T10:17:00;48823.84;;;-144.47;33.90
31585;BME280;18191;51.288;12.390;2022-07-22T10:21:51;48821.84;;;-144.47;33.56
31585;BME280;18191;51.288;12.390;2022-07-22T10:26:51;48815.88;;;-144.47;34.87
31585;BME280;18191;51.288;12.390;2022-07-22T10:31:42;48801.97;;;-144.47;35.07
31585;BME280;18191;51.288;12.390;2022-07-22T10:36:33;48813.91;;;-144.47;35.12
31585;BME280;18191;51.288;12.390;2022-07-22T10:41:33;48796.00;;;-144.47;34.57
31585;BME280;18191;51.288;12.390;2022-07-22T10:46:46;48778.09;;;-144.47;33.93
31585;BME280;18191;51.288;12.390;2022-07-22T10:51:34;48796.00;;;-144.47;35.77
31585;BME280;18191;51.288;12.390;2022-07-22T10:56:31;48863.63;;;-144.47;36.92
31585;BME280;18191;51.288;12.390;2022-07-22T11:01:23;48792.03;;;-144.47;37.11
31585;BME280;18191;51.288;12.390;2022-07-22T11:06:29;48849.69;;;-144.47;36.89
31585;BME280;18191;51.288;12.390;2022-07-22T11:11:30;48813.91;;;-144.47;35.88
31585;BME280;18191;51.288;12.390;2022-07-22T11:16:22;48799.97;;;-144.47;36.95
31585;BME280;18191;51.288;12.390;2022-07-22T11:21:14;48809.91;;;-144.47;36.79
31585;BME280;18191;51.288;12.390;2022-07-22T11:26:04;48799.97;;;-144.47;36.90
31585;BME280;18191;51.288;12.390;2022-07-22T11:31:05;48813.91;;;-144.47;36.25
31585;BME280;18191;51.288;12.390;2022-07-22T11:36:02;48817.88;;;-144.47;35.61
31585;BME280;18191;51.288;12.390;2022-07-22T11:40:52;48817.88;;;-144.47;35.37
31585;BME280;18191;51.288;12.390;2022-07-22T11:45:55;48827.81;;;-144.47;35.62
31585;BME280;18191;51.288;12.390;2022-07-22T11:50:46;48825.84;;;-144.47;35.03
31585;BME280;18191;51.288;12.390;2022-07-22T11:55:37;48831.81;;;-144.47;35.14
31585;BME280;18191;51.288;12.390;2022-07-22T12:00:28;48821.84;;;-144.47;34.82
31585;BME280;18191;51.288;12.390;2022-07-22T12:05:18;48865.63;;;-144.47;34.18
31585;BME280;18191;51.288;12.390;2022-07-22T12:10:08;48813.91;;;-144.47;33.46
31585;BME280;18191;51.288;12.390;2022-07-22T12:14:58;48817.88;;;-144.47;34.23
31585;BME280;18191;51.288;12.390;2022-07-22T12:19:48;48817.88;;;-144.47;31.74
31585;BME280;18191;51.288;12.390;2022-07-22T12:24:41;48843.72;;;-144.47;31.45
31585;BME280;18191;51.288;12.390;2022-07-22T12:39:39;48825.84;;;-144.47;33.71
31585;BME280;18191;51.288;12.390;2022-07-22T12:44:29;48817.88;;;-144.47;32.39
31585;BME280;18191;51.288;12.390;2022-07-22T12:49:20;48801.97;;;-144.47;32.38
31585;BME280;18191;51.288;12.390;2022-07-22T12:54:11;48798.00;;;-144.47;31.84
31585;BME280;18191;51.288;12.390;2022-07-22T12:59:02;48841.75;;;-144.47;33.04
31585;BME280;18191;51.288;12.390;2022-07-22T13:03:53;48794.00;;;-144.47;34.02
31585;BME280;18191;51.288;12.390;2022-07-22T13:08:43;48833.78;;;-144.47;34.41
31585;BME280;18191;51.288;12.390;2022-07-22T13:13:33;48827.81;;;-144.47;34.31
31585;BME280;18191;51.288;12.390;2022-07-22T13:18:23;48796.00;;;-144.47;34.80
31585;BME280;18191;51.288;12.390;2022-07-22T13:23:13;48853.69;;;-144.47;34.20
31585;BME280;18191;51.288;12.390;2022-07-22T13:28:04;48857.66;;;-144.47;32.21
31585;BME280;18191;51.288;12.390;2022-07-22T13:32:54;48829.81;;;-144.47;33.26
31585;BME280;18191;51.288;12.390;2022-07-22T13:37:44;48782.06;;;-144.47;33.99
31585;BME280;18191;51.288;12.390;2022-07-22T13:42:35;48805.94;;;-144.47;35.10
31585;BME280;18191;51.288;12.390;2022-07-22T13:47:25;48841.75;;;-144.47;35.30
31585;BME280;18191;51.288;12.390;2022-07-22T13:52:16;48837.78;;;-144.47;35.52
31585;BME280;18191;51.288;12.390;2022-07-22T13:57:08;48815.88;;;-144.47;35.61
31585;BME280;18191;51.288;12.390;2022-07-22T14:01:59;48825.84;;;-144.47;34.76
31585;BME280;18191;51.288;12.390;2022-07-22T14:06:49;48801.97;;;-144.47;34.42
31585;BME280;18191;51.288;12.390;2022-07-22T14:11:40;48801.97;;;-144.47;33.41
31585;BME280;18191;51.288;12.390;2022-07-22T14:16:30;48841.75;;;-144.47;32.64
31585;BME280;18191;51.288;12.390;2022-07-22T14:21:26;48841.75;;;-144.47;31.62
31585;BME280;18191;51.288;12.390;2022-07-22T14:26:16;48837.78;;;-144.47;32.80
31585;BME280;18191;51.288;12.390;2022-07-22T14:31:06;48794.00;;;-144.47;32.59
31585;BME280;18191;51.288;12.390;2022-07-22T14:35:57;48817.88;;;-144.47;33.42
31585;BME280;18191;51.288;12.390;2022-07-22T14:40:47;48841.75;;;-144.47;32.67
31585;BME280;18191;51.288;12.390;2022-07-22T14:45:37;48827.81;;;-144.47;32.67
31585;BME280;18191;51.288;12.390;2022-07-22T14:50:27;48845.72;;;-144.47;33.13
31585;BME280;18191;51.288;12.390;2022-07-22T14:55:17;48841.75;;;-144.47;32.69
31585;BME280;18191;51.288;12.390;2022-07-22T15:00:08;48841.75;;;-144.47;34.42
31585;BME280;18191;51.288;12.390;2022-07-22T15:04:58;48813.91;;;-144.47;33.44
31585;BME280;18191;51.288;12.390;2022-07-22T15:09:48;48794.00;;;-144.47;34.07
31585;BME280;18191;51.288;12.390;2022-07-22T15:14:38;48801.97;;;-144.47;32.72
31585;BME280;18191;51.288;12.390;2022-07-22T15:19:29;48835.78;;;-144.47;32.64
31585;BME280;18191;51.288;12.390;2022-07-22T15:24:19;48821.84;;;-144.47;33.03
31585;BME280;18191;51.288;12.390;2022-07-22T15:29:09;48829.81;;;-144.47;32.35
31585;BME280;18191;51.288;12.390;2022-07-22T15:33:59;48829.81;;;-144.47;33.40
31585;BME280;18191;51.288;12.390;2022-07-22T15:38:53;48827.81;;;-144.47;32.90
31585;BME280;18191;51.288;12.390;2022-07-22T15:43:43;48823.84;;;-144.47;31.84
31585;BME280;18191;51.288;12.390;2022-07-22T15:48:33;48823.84;;;-144.47;32.25
31585;BME280;18191;51.288;12.390;2022-07-22T15:53:23;48821.84;;;-144.47;32.30
31585;BME280;18191;51.288;12.390;2022-07-22T15:58:13;48809.91;;;-144.47;32.41
31585;BME280;18191;51.288;12.390;2022-07-22T16:03:22;48849.69;;;-144.47;31.69
31585;BME280;18191;51.288;12.390;2022-07-22T16:08:12;48825.84;;;-144.47;32.30
31585;BME280;18191;51.288;12.390;2022-07-22T16:13:03;48809.91;;;-144.47;32.77
31585;BME280;18191;51.288;12.390;2022-07-22T16:17:53;48821.84;;;-144.47;32.84
31585;BME280;18191;51.288;12.390;2022-07-22T16:22:43;48817.88;;;-144.47;33.33
31585;BME280;18191;51.288;12.390;2022-07-22T16:27:33;48815.88;;;-144.47;32.46
31585;BME280;18191;51.288;12.390;2022-07-22T16:32:24;48792.03;;;-144.47;32.94
31585;BME280;18191;51.288;12.390;2022-07-22T16:37:14;48801.97;;;-144.47;32.10
31585;BME280;18191;51.288;12.390;2022-07-22T16:42:04;48835.78;;;-144.47;32.85
31585;BME280;18191;51.288;12.390;2022-07-22T16:46:55;48794.00;;;-144.47;32.01
31585;BME280;18191;51.288;12.390;2022-07-22T16:51:45;48786.06;;;-144.47;32.15
31585;BME280;18191;51.288;12.390;2022-07-22T16:56:35;48799.97;;;-144.47;32.19
31585;BME280;18191;51.288;12.390;2022-07-22T17:01:25;48809.91;;;-144.47;32.17
31585;BME280;18191;51.288;12.390;2022-07-22T17:06:15;48796.00;;;-144.47;32.71
31585;BME280;18191;51.288;12.390;2022-07-22T17:11:06;48798.00;;;-144.47;32.85
31585;BME280;18191;51.288;12.390;2022-07-22T17:15:57;48817.88;;;-144.47;32.34
31585;BME280;18191;51.288;12.390;2022-07-22T17:20:47;48821.84;;;-144.47;33.26
31585;BME280;18191;51.288;12.390;2022-07-22T17:25:37;48809.91;;;-144.47;33.03
31585;BME280;18191;51.288;12.390;2022-07-22T17:30:27;48805.94;;;-144.47;32.95
31585;BME280;18191;51.288;12.390;2022-07-22T17:35:18;48809.91;;;-144.47;32.78
31585;BME280;18191;51.288;12.390;2022-07-22T17:40:08;48819.88;;;-144.47;32.95
31585;BME280;18191;51.288;12.390;2022-07-22T17:44:58;48829.81;;;-144.47;33.31
31585;BME280;18191;51.288;12.390;2022-07-22T17:49:49;48782.06;;;-144.47;33.12
31585;BME280;18191;51.288;12.390;2022-07-22T17:54:39;48790.03;;;-144.47;32.61
31585;BME280;18191;51.288;12.390;2022-07-22T17:59:29;48817.88;;;-144.47;33.61
31585;BME280;18191;51.288;12.390;2022-07-22T18:04:19;48811.91;;;-144.47;34.38
31585;BME280;18191;51.288;12.390;2022-07-22T18:09:10;48833.78;;;-144.47;35.13
31585;BME280;18191;51.288;12.390;2022-07-22T18:14:01;48798.00;;;-144.47;35.80
31585;BME280;18191;51.288;12.390;2022-07-22T18:18:51;48829.81;;;-144.47;36.09
31585;BME280;18191;51.288;12.390;2022-07-22T18:23:41;48827.81;;;-144.47;37.19
31585;BME280;18191;51.288;12.390;2022-07-22T18:28:31;48823.84;;;-144.47;37.55
31585;BME280;18191;51.288;12.390;2022-07-22T18:33:21;48833.78;;;-144.47;37.88
31585;BME280;18191;51.288;12.390;2022-07-22T18:38:12;48837.78;;;-144.47;38.02
31585;BME280;18191;51.288;12.390;2022-07-22T18:43:02;48813.91;;;-144.47;38.23
31585;BME280;18191;51.288;12.390;2022-07-22T18:47:52;48841.75;;;-144.47;38.51
31585;BME280;18191;51.288;12.390;2022-07-22T18:52:42;48825.84;;;-144.47;38.86
31585;BME280;18191;51.288;12.390;2022-07-22T18:57:32;48843.72;;;-144.47;39.26
31585;BME280;18191;51.288;12.390;2022-07-22T19:02:22;48849.69;;;-144.47;39.36
31585;BME280;18191;51.288;12.390;2022-07-22T19:07:13;48798.00;;;-144.47;39.70
31585;BME280;18191;51.288;12.390;2022-07-22T19:12:04;48841.75;;;-144.47;39.93
31585;BME280;18191;51.288;12.390;2022-07-22T19:16:54;48839.75;;;-144.47;40.45
31585;BME280;18191;51.288;12.390;2022-07-22T19:21:45;48895.44;;;-144.47;41.21
31585;BME280;18191;51.288;12.390;2022-07-22T19:26:35;48857.66;;;-144.47;41.10
31585;BME280;18191;51.288;12.390;2022-07-22T19:31:25;48845.72;;;-144.47;41.43
31585;BME280;18191;51.288;12.390;2022-07-22T19:36:16;48833.78;;;-144.47;41.87
31585;BME280;18191;51.288;12.390;2022-07-22T19:41:06;48835.78;;;-144.47;42.49
31585;BME280;18191;51.288;12.390;2022-07-22T19:45:56;48831.81;;;-144.47;42.91
31585;BME280;18191;51.288;12.390;2022-07-22T19:50:47;48829.81;;;-144.47;43.30
31585;BME280;18191;51.288;12.390;2022-07-22T19:55:37;48821.84;;;-144.47;43.28
31585;BME280;18191;51.288;12.390;2022-07-22T20:00:27;48805.94;;;-144.47;43.38
31585;BME280;18191;51.288;12.390;2022-07-22T20:05:17;48833.78;;;-144.47;43.96
31585;BME280;18191;51.288;12.390;2022-07-22T20:10:08;48853.69;;;-144.47;44.39
31585;BME280;18191;51.288;12.390;2022-07-22T20:14:58;48845.72;;;-144.47;44.87
31585;BME280;18191;51.288;12.390;2022-07-22T20:19:48;48843.72;;;-144.47;44.82
31585;BME280;18191;51.288;12.390;2022-07-22T20:24:38;48833.78;;;-144.47;45.16
31585;BME280;18191;51.288;12.390;2022-07-22T20:29:29;48853.69;;;-144.47;45.24
31585;BME280;18191;51.288;12.390;2022-07-22T20:34:19;48801.97;;;-144.47;45.84
31585;BME280;18191;51.288;12.390;2022-07-22T20:39:09;48845.72;;;-144.47;45.41
31585;BME280;18191;51.288;12.390;2022-07-22T20:44:00;48873.56;;;-144.47;46.45
31585;BME280;18191;51.288;12.390;2022-07-22T20:48:50;48857.66;;;-144.47;46.58
31585;BME280;18191;51.288;12.390;2022-07-22T20:53:40;48841.75;;;-144.47;46.61
31585;BME280;18191;51.288;12.390;2022-07-22T20:58:30;48887.50;;;-144.47;46.87
31585;BME280;18191;51.288;12.390;2022-07-22T21:03:21;48817.88;;;-144.47;47.75
31585;BME280;18191;51.288;12.390;2022-07-22T21:08:11;48837.78;;;-144.47;48.39
31585;BME280;18191;51.288;12.390;2022-07-22T21:13:02;48847.72;;;-144.47;48.58
31585;BME280;18191;51.288;12.390;2022-07-22T21:17:53;48841.75;;;-144.47;48.87
31585;BME280;18191;51.288;12.390;2022-07-22T21:22:43;48857.66;;;-144.47;49.37
31585;BME280;18191;51.288;12.390;2022-07-22T21:27:34;48853.69;;;-144.47;49.54
31585;BME280;18191;51.288;12.390;2022-07-22T21:32:25;48843.72;;;-144.47;50.33
31585;BME280;18191;51.288;12.390;2022-07-22T21:37:15;48857.66;;;-144.47;50.57
31585;BME280;18191;51.288;12.390;2022-07-22T21:42:05;48857.66;;;-144.47;51.14
31585;BME280;18191;51.288;12.390;2022-07-22T21:46:56;48849.69;;;-144.47;50.83
31585;BME280;18191;51.288;12.390;2022-07-22T21:51:46;48841.75;;;-144.47;51.92
31585;BME280;18191;51.288;12.390;2022-07-22T21:56:36;48845.72;;;-144.47;51.97
31585;BME280;18191;51.288;12.390;2022-07-22T22:01:46;48859.66;;;-144.47;52.40
31585;BME280;18191;51.288;12.390;2022-07-22T22:06:38;48845.72;;;-144.47;52.44
31585;BME280;18191;51.288;12.390;2022-07-22T22:11:28;48857.66;;;-144.47;52.82
31585;BME280;18191;51.288;12.390;2022-07-22T22:16:18;48869.59;;;-144.47;53.07
31585;BME280;18191;51.288;12.390;2022-07-22T22:21:08;48857.66;;;-144.47;53.16
31585;BME280;18191;51.288;12.390;2022-07-22T22:25:59;48853.69;;;-144.47;53.80
31585;BME280;18191;51.288;12.390;2022-07-22T22:30:49;48861.63;;;-144.47;54.08
31585;BME280;18191;51.288;12.390;2022-07-22T22:35:39;48841.75;;;-144.47;54.04
31585;BME280;18191;51.288;12.390;2022-07-22T22:40:29;48873.56;;;-144.47;54.13
31585;BME280;18191;51.288;12.390;2022-07-22T22:45:19;48865.63;;;-144.47;54.45
31585;BME280;18191;51.288;12.390;2022-07-22T22:50:10;48845.72;;;-144.47;54.83
31585;BME280;18191;51.288;12.390;2022-07-22T22:55:00;48849.69;;;-144.47;54.96
31585;BME280;18191;51.288;12.390;2022-07-22T22:59:50;48857.66;;;-144.47;55.17
31585;BME280;18191;51.288;12.390;2022-07-22T23:04:40;48811.91;;;-144.47;55.36
31585;BME280;18191;51.288;12.390;2022-07-22T23:09:31;48865.63;;;-144.47;55.11
31585;BME280;18191;51.288;12.390;2022-07-22T23:14:21;48875.56;;;-144.47;56.75
31585;BME280;18191;51.288;12.390;2022-07-22T23:19:11;48873.56;;;-144.47;56.52
31585;BME280;18191;51.288;12.390;2022-07-22T23:24:02;48823.84;;;-144.47;56.25
31585;BME280;18191;51.288;12.390;2022-07-22T23:28:52;48857.66;;;-144.47;55.36
31585;BME280;18191;51.288;12.390;2022-07-22T23:33:42;48901.41;;;-144.47;56.37
31585;BME280;18191;51.288;12.390;2022-07-22T23:38:32;48849.69;;;-144.47;56.34
31585;BME280;18191;51.288;12.390;2022-07-22T23:43:22;48917.34;;;-144.47;56.39
31585;BME280;18191;51.288;12.390;2022-07-22T23:48:13;48875.56;;;-144.47;56.48
31585;BME280;18191;51.288;12.390;2022-07-22T23:53:03;48837.78;;;-144.47;57.09
31585;BME280;18191;51.288;12.390;2022-07-22T23:57:53;48857.66;;;-144.47;57.32
